Time;durP1;ratioP1;P1;durP2;ratioP2;P2;SDS_P1;SDS_P2;PMS_P1;PMS_P2;Temp;Humidity;BMP_temperature;BMP_pressure;BME280_temperature;BME280_humidity;BME280_pressure;Samples;Min_cycle;Max_cycle;Signal;HPM_P1;HPM_P2
2023/01/10 00:00:12;;;;;;;17.60;5.15;;;;;;;4.03;100.00;101208.75;5355931;27;20021;-81
2023/01/10 00:02:44;;;;;;;14.00;4.38;;;;;;;3.94;100.00;101202.22;5343093;27;20027;-82
2023/01/10 00:05:16;;;;;;;18.98;5.03;;;;;;;3.96;100.00;101206.47;5347097;27;20766;-82
2023/01/10 00:07:47;;;;;;;14.82;4.22;;;;;;;3.97;100.00;101212.59;5345965;27;20016;-82
2023/01/10 00:10:19;;;;;;;20.98;5.00;;;;;;;4.00;100.00;101222.13;5348697;27;20035;-82
2023/01/10 00:15:40;;;;;;;14.85;4.10;;;;;;;3.88;100.00;101226.34;5346917;27;20043;-82
2023/01/10 00:18:11;;;;;;;13.43;3.83;;;;;;;3.88;100.00;101229.00;5330540;27;20444;-82
2023/01/10 00:20:46;;;;;;;15.45;4.45;;;;;;;3.87;100.00;101237.84;5347122;27;20495;-82
2023/01/10 00:23:18;;;;;;;16.88;4.50;;;;;;;3.88;100.00;101244.81;5341453;27;20015;-82
2023/01/10 00:25:50;;;;;;;14.90;4.63;;;;;;;3.82;100.00;101247.81;5343523;27;20036;-81
2023/01/10 00:28:22;;;;;;;14.38;4.07;;;;;;;3.84;100.00;101259.13;5341993;27;20030;-82
2023/01/10 00:30:56;;;;;;;13.75;3.95;;;;;;;3.83;100.00;101262.72;5341082;27;20135;-82
2023/01/10 00:33:30;;;;;;;14.55;4.15;;;;;;;3.76;100.00;101257.78;5338664;27;20032;-82
2023/01/10 00:36:04;;;;;;;19.00;5.07;;;;;;;3.79;100.00;101275.22;5340614;27;20468;-82
2023/01/10 00:38:35;;;;;;;17.25;4.50;;;;;;;3.75;100.00;101271.94;5343450;27;20539;-82
2023/01/10 00:43:55;;;;;;;18.55;4.53;;;;;;;3.69;100.00;101274.06;5342920;27;26524;-81
2023/01/10 00:43:58;;;;;;;17.85;4.30;;;;;;;3.66;100.00;101275.06;5336634;27;20028;-82
2023/01/10 00:46:30;;;;;;;20.45;5.55;;;;;;;3.59;100.00;101273.72;5336888;27;20032;-82
2023/01/10 00:49:05;;;;;;;23.20;4.90;;;;;;;3.56;100.00;101287.94;5339229;27;20472;-82
2023/01/10 00:51:37;;;;;;;26.45;5.22;;;;;;;3.55;100.00;101280.94;5342684;27;20034;-82
2023/01/10 00:54:09;;;;;;;20.02;5.25;;;;;;;3.60;100.00;101292.09;5339961;27;20035;-82
2023/01/10 00:56:40;;;;;;;24.92;5.25;;;;;;;3.68;100.00;101291.69;5339069;27;20031;-81
2023/01/10 00:59:12;;;;;;;21.35;5.18;;;;;;;3.73;100.00;101286.97;5328913;27;29840;-81
2023/01/10 01:01:43;;;;;;;21.77;5.97;;;;;;;3.82;100.00;101292.66;5316835;27;20032;-81
2023/01/10 01:04:14;;;;;;;21.88;4.88;;;;;;;3.94;100.00;101284.03;5333180;27;20094;-82
2023/01/10 01:06:47;;;;;;;16.65;4.22;;;;;;;3.93;100.00;101293.75;5337757;27;20028;-82
2023/01/10 01:09:19;;;;;;;17.42;4.80;;;;;;;3.97;100.00;101297.06;5332249;27;20063;-81
2023/01/10 01:11:50;;;;;;;18.83;4.55;;;;;;;3.93;100.00;101306.97;5340738;27;20062;-82
2023/01/10 01:14:23;;;;;;;14.77;4.78;;;;;;;3.89;100.00;101307.22;5339527;27;20396;-82
2023/01/10 01:16:55;;;;;;;16.50;4.95;;;;;;;3.93;100.00;101319.31;5335753;27;20035;-82
2023/01/10 01:19:27;;;;;;;21.60;5.28;;;;;;;3.89;100.00;101325.69;5343969;27;20032;-81
2023/01/10 01:21:58;;;;;;;18.77;5.78;;;;;;;3.95;100.00;101331.47;5343728;27;20074;-82
2023/01/10 01:24:29;;;;;;;24.00;7.32;;;;;;;3.96;100.00;101333.19;5342846;27;23261;-82
2023/01/10 01:27:00;;;;;;;26.92;10.13;;;;;;;3.97;100.00;101329.59;5341894;27;20114;-81
2023/01/10 01:29:32;;;;;;;27.25;12.30;;;;;;;4.02;100.00;101331.13;5337329;27;20034;-82
2023/01/10 01:32:03;;;;;;;26.88;12.23;;;;;;;4.04;100.00;101332.72;5341835;27;20023;-82
2023/01/10 01:34:35;;;;;;;25.30;12.00;;;;;;;3.99;100.00;101350.63;5340482;27;20442;-82
2023/01/10 01:37:06;;;;;;;26.17;11.57;;;;;;;3.98;100.00;101341.03;5342793;27;20472;-82
2023/01/10 01:39:37;;;;;;;31.00;13.30;;;;;;;4.05;100.00;101347.66;5340550;27;20030;-82
2023/01/10 01:42:32;;;;;;;28.02;13.30;;;;;;;4.12;100.00;101354.28;5342354;27;20419;-82
2023/01/10 01:45:06;;;;;;;31.45;13.48;;;;;;;4.22;100.00;101351.09;5340212;27;20032;-82
2023/01/10 01:47:40;;;;;;;33.30;13.40;;;;;;;4.26;100.00;101356.13;5341891;27;20367;-82
2023/01/10 01:50:27;;;;;;;30.73;11.55;;;;;;;4.28;100.00;101380.63;5342316;27;20548;-82
2023/01/10 01:53:01;;;;;;;21.95;10.00;;;;;;;4.30;100.00;101365.56;5311517;27;20031;-82
2023/01/10 01:55:35;;;;;;;22.38;9.30;;;;;;;4.32;100.00;101373.38;5336243;27;20039;-83
2023/01/10 01:58:12;;;;;;;25.05;8.88;;;;;;;4.38;100.00;101365.09;5339763;27;20073;-83
2023/01/10 02:00:43;;;;;;;22.15;8.38;;;;;;;4.35;100.00;101371.41;5340196;27;20028;-83
2023/01/10 02:03:15;;;;;;;26.77;9.15;;;;;;;4.41;100.00;101372.84;5341246;27;20031;-83
2023/01/10 02:05:46;;;;;;;23.60;7.57;;;;;;;4.43;100.00;101381.53;5337350;27;20023;-83
2023/01/10 02:08:17;;;;;;;19.55;7.22;;;;;;;4.44;100.00;101369.19;5335168;27;20028;-83
2023/01/10 02:11:09;;;;;;;26.70;8.35;;;;;;;4.48;100.00;101378.63;5312578;27;20081;-82
2023/01/10 02:13:44;;;;;;;25.67;7.63;;;;;;;4.48;100.00;101384.75;5339666;27;20100;-82
2023/01/10 02:16:15;;;;;;;22.30;7.00;;;;;;;4.41;100.00;101380.78;5337681;27;20026;-83
2023/01/10 02:18:46;;;;;;;19.35;6.68;;;;;;;4.38;100.00;101386.22;5332477;27;20023;-83
2023/01/10 02:21:48;;;;;;;23.60;7.00;;;;;;;4.42;100.00;101392.19;5348025;27;20036;-82
2023/01/10 02:24:53;;;;;;;27.63;6.72;;;;;;;4.42;100.00;101384.25;5343446;27;20038;-81
2023/01/10 02:27:31;;;;;;;18.17;6.05;;;;;;;4.41;100.00;101386.06;5360683;27;20042;-81
2023/01/10 02:30:34;;;;;;;22.15;6.15;;;;;;;4.38;100.00;101388.88;5346733;27;20096;-81
2023/01/10 02:33:21;;;;;;;23.02;5.40;;;;;;;4.31;100.00;101383.13;5342219;27;20020;-82
2023/01/10 02:36:17;;;;;;;18.52;5.00;;;;;;;4.34;100.00;101379.44;5333873;27;20032;-82
2023/01/10 02:39:16;;;;;;;18.50;4.63;;;;;;;4.34;100.00;101380.28;5334264;27;20043;-82
2023/01/10 02:42:08;;;;;;;26.23;5.55;;;;;;;4.26;100.00;101381.66;5337825;27;20114;-81
2023/01/10 02:45:12;;;;;;;18.95;6.03;;;;;;;4.20;100.00;101388.16;5334012;27;20032;-87
2023/01/10 02:47:43;;;;;;;19.05;4.80;;;;;;;4.14;100.00;101384.06;5328930;27;20036;-82
2023/01/10 02:50:33;;;;;;;22.63;4.95;;;;;;;4.12;100.00;101391.25;5340602;27;20030;-82
2023/01/10 02:53:10;;;;;;;15.98;4.00;;;;;;;4.00;100.00;101397.22;5334141;27;20115;-82
2023/01/10 02:56:02;;;;;;;19.42;4.50;;;;;;;3.98;100.00;101396.44;5335254;27;20384;-82
2023/01/10 02:59:09;;;;;;;17.40;5.03;;;;;;;3.92;100.00;101404.69;5340688;27;20054;-82
2023/01/10 03:01:52;;;;;;;23.75;5.82;;;;;;;3.88;100.00;101405.81;5339294;27;20032;-82
2023/01/10 03:04:54;;;;;;;17.90;5.32;;;;;;;3.79;100.00;101404.53;5334943;27;20020;-82
2023/01/10 03:07:42;;;;;;;25.85;5.20;;;;;;;3.81;100.00;101412.38;5338242;27;20366;-82
2023/01/10 03:10:26;;;;;;;22.23;4.82;;;;;;;3.78;100.00;101431.84;5334009;27;20063;-82
2023/01/10 03:13:03;;;;;;;29.90;5.82;;;;;;;3.84;100.00;101425.38;5336350;27;20039;-81
2023/01/10 03:15:37;;;;;;;23.08;5.60;;;;;;;3.88;100.00;101417.22;5338066;27;20085;-81
2023/01/10 03:18:14;;;;;;;15.35;4.20;;;;;;;3.93;100.00;101433.66;5340111;27;20472;-82
2023/01/10 03:20:48;;;;;;;20.00;4.70;;;;;;;4.00;100.00;101439.44;5338108;27;20130;-82
2023/01/10 03:23:21;;;;;;;21.27;4.85;;;;;;;4.02;100.00;101450.75;5333254;27;20798;-82
2023/01/10 03:25:55;;;;;;;18.50;4.40;;;;;;;4.09;100.00;101452.13;5341710;27;20046;-82
2023/01/10 03:28:38;;;;;;;18.55;4.72;;;;;;;4.18;100.00;101447.28;5334377;27;20120;-82
2023/01/10 03:31:15;;;;;;;30.58;5.78;;;;;;;4.24;100.00;101452.19;5333370;27;20031;-82
2023/01/10 03:33:47;;;;;;;16.52;4.20;;;;;;;4.27;100.00;101452.03;5334739;27;20024;-82
2023/01/10 03:36:25;;;;;;;19.17;3.33;;;;;;;4.35;100.00;101466.50;5313218;27;20059;-82
2023/01/10 03:39:12;;;;;;;20.17;5.38;;;;;;;4.40;100.00;101450.41;5339291;27;20100;-82
2023/01/10 03:41:51;;;;;;;19.30;4.70;;;;;;;4.43;100.00;101454.66;5320317;27;20483;-82
2023/01/10 03:44:55;;;;;;;19.80;4.05;;;;;;;4.43;100.00;101458.13;5342642;27;20111;-82
2023/01/10 03:47:34;;;;;;;23.25;3.83;;;;;;;4.38;100.00;101461.97;5316977;27;20051;-82
2023/01/10 03:50:18;;;;;;;27.17;4.45;;;;;;;4.41;100.00;101473.22;5337980;27;20031;-82
2023/01/10 03:52:50;;;;;;;24.05;3.65;;;;;;;4.39;100.00;101467.19;5338302;27;20329;-81
2023/01/10 03:55:26;;;;;;;19.60;4.53;;;;;;;4.48;100.00;101479.00;5337813;27;20104;-82
2023/01/10 03:57:58;;;;;;;23.95;5.93;;;;;;;4.50;100.00;101477.97;5337493;27;20555;-82
2023/01/10 04:00:29;;;;;;;15.98;4.18;;;;;;;4.54;100.00;101492.72;5340666;27;20053;-82
2023/01/10 04:03:01;;;;;;;28.70;4.78;;;;;;;4.54;100.00;101479.53;5323570;27;20030;-83
2023/01/10 04:05:32;;;;;;;18.88;3.92;;;;;;;4.60;100.00;101494.16;5344372;27;20038;-82
2023/01/10 04:08:04;;;;;;;23.83;4.63;;;;;;;4.58;100.00;101493.41;5338858;27;20028;-82
2023/01/10 04:10:36;;;;;;;26.25;4.57;;;;;;;4.53;100.00;101501.59;5339894;27;20051;-82
2023/01/10 04:13:07;;;;;;;23.70;4.45;;;;;;;4.47;100.00;101499.31;5335967;27;20107;-82
2023/01/10 04:15:39;;;;;;;28.52;4.50;;;;;;;4.45;100.00;101503.84;5341387;27;20076;-82
2023/01/10 04:18:11;;;;;;;23.98;4.68;;;;;;;4.40;100.00;101510.28;5342299;27;20032;-82
2023/01/10 04:20:43;;;;;;;22.42;4.43;;;;;;;4.34;100.00;101511.50;5337925;27;20965;-82
2023/01/10 04:23:14;;;;;;;26.95;5.05;;;;;;;4.33;100.00;101521.22;5336658;27;20031;-82
2023/01/10 04:25:46;;;;;;;19.70;4.22;;;;;;;4.33;100.00;101518.56;5317012;27;20028;-81
2023/01/10 04:28:18;;;;;;;29.60;6.22;;;;;;;4.39;100.00;101527.94;5335593;27;20039;-82
2023/01/10 04:30:49;;;;;;;25.45;4.43;;;;;;;4.36;100.00;101525.47;5341050;27;20035;-82
2023/01/10 04:33:20;;;;;;;23.50;4.32;;;;;;;4.37;100.00;101523.69;5340989;27;20023;-82
2023/01/10 04:35:52;;;;;;;22.85;4.53;;;;;;;4.37;100.00;101515.78;5336010;27;20063;-83
2023/01/10 04:38:23;;;;;;;20.60;4.63;;;;;;;4.43;100.00;101518.03;5336933;27;20035;-83
2023/01/10 04:40:55;;;;;;;20.45;4.63;;;;;;;4.42;100.00;101504.00;5341177;27;20036;-83
2023/01/10 04:43:27;;;;;;;21.10;4.15;;;;;;;4.41;100.00;101504.09;5340578;27;20016;-83
2023/01/10 04:45:58;;;;;;;22.85;4.05;;;;;;;4.41;100.00;101512.00;5340473;27;20459;-82
2023/01/10 04:48:29;;;;;;;26.00;4.72;;;;;;;4.37;100.00;101521.91;5323730;27;20024;-83
2023/01/10 04:51:01;;;;;;;15.98;3.90;;;;;;;4.34;100.00;101530.81;5326093;27;20043;-83
2023/01/10 04:53:32;;;;;;;22.92;5.38;;;;;;;4.41;100.00;101546.34;5357917;27;20076;-81
2023/01/10 04:56:08;;;;;;;23.10;4.95;;;;;;;4.47;100.00;101538.06;5371523;27;20016;-81
2023/01/10 04:58:39;;;;;;;21.73;3.67;;;;;;;4.51;100.00;101529.03;5367114;27;20034;-81
2023/01/10 05:01:16;;;;;;;22.70;4.82;;;;;;;4.50;100.00;101522.03;5358470;27;20043;-83
2023/01/10 05:03:51;;;;;;;18.52;4.15;;;;;;;4.44;100.00;101512.69;5353975;27;20388;-82
2023/01/10 05:06:23;;;;;;;25.50;4.90;;;;;;;4.39;100.00;101527.09;5318958;27;20031;-83
2023/01/10 05:08:54;;;;;;;24.67;4.10;;;;;;;4.35;100.00;101535.19;5340480;27;20032;-83
2023/01/10 05:11:26;;;;;;;23.13;4.40;;;;;;;4.36;100.00;101541.31;5332678;27;20016;-83
2023/01/10 05:13:57;;;;;;;23.60;3.92;;;;;;;4.40;100.00;101545.50;5321198;27;20491;-83
2023/01/10 05:16:28;;;;;;;21.75;4.57;;;;;;;4.45;100.00;101566.34;5339090;27;20032;-83
2023/01/10 05:19:00;;;;;;;20.25;4.32;;;;;;;4.49;100.00;101579.31;5336177;27;20024;-82
2023/01/10 05:21:31;;;;;;;28.27;4.25;;;;;;;4.54;100.00;101585.22;5335475;27;20109;-82
2023/01/10 05:24:03;;;;;;;29.88;4.75;;;;;;;4.59;100.00;101584.09;5340777;27;20020;-82
2023/01/10 05:26:34;;;;;;;26.02;5.95;;;;;;;4.63;100.00;101580.31;5344307;27;20035;-83
2023/01/10 05:29:05;;;;;;;21.05;4.75;;;;;;;4.66;100.00;101590.72;5341536;27;20050;-82
2023/01/10 05:31:37;;;;;;;29.95;5.50;;;;;;;4.66;100.00;101594.25;5332154;27;20032;-83
2023/01/10 05:34:11;;;;;;;22.25;5.40;;;;;;;4.67;100.00;101597.75;5319644;27;31379;-83
2023/01/10 05:36:43;;;;;;;30.88;5.60;;;;;;;4.63;100.00;101591.78;5341916;27;20032;-83
2023/01/10 05:39:14;;;;;;;19.88;5.43;;;;;;;4.68;100.00;101584.44;5336944;27;20046;-82
2023/01/10 05:41:46;;;;;;;25.70;5.35;;;;;;;4.70;100.00;101589.66;5348208;27;20022;-82
2023/01/10 05:44:17;;;;;;;32.53;4.90;;;;;;;4.68;100.00;101587.09;5330411;27;20041;-83
2023/01/10 05:46:48;;;;;;;26.95;4.20;;;;;;;4.66;100.00;101596.03;5340413;27;37303;-82
2023/01/10 05:49:20;;;;;;;25.33;5.22;;;;;;;4.71;100.00;101602.75;5348765;27;20053;-82
2023/01/10 05:51:51;;;;;;;26.17;6.03;;;;;;;4.71;100.00;101608.03;5361166;27;20027;-82
2023/01/10 05:54:22;;;;;;;27.65;5.50;;;;;;;4.70;100.00;101609.00;5350777;27;20028;-83
2023/01/10 05:56:54;;;;;;;19.08;4.80;;;;;;;4.69;100.00;101615.19;5345115;27;20414;-83
2023/01/10 05:59:25;;;;;;;24.13;4.90;;;;;;;4.68;100.00;101605.59;5351981;27;20027;-81
2023/01/10 06:01:56;;;;;;;25.65;4.65;;;;;;;4.69;100.00;101619.63;5362274;27;20027;-82
2023/01/10 06:04:28;;;;;;;20.45;4.80;;;;;;;4.72;100.00;101619.47;5356587;27;20027;-80
2023/01/10 06:06:59;;;;;;;30.23;5.18;;;;;;;4.73;100.00;101622.03;5356590;27;20023;-80
2023/01/10 06:09:31;;;;;;;21.42;5.75;;;;;;;4.72;100.00;101622.13;5354176;27;20055;-82
2023/01/10 06:12:03;;;;;;;22.20;4.07;;;;;;;4.74;100.00;101623.72;5351381;27;20028;-82
2023/01/10 06:14:34;;;;;;;33.85;7.03;;;;;;;4.74;100.00;101621.09;5358628;27;20110;-82
2023/01/10 06:17:08;;;;;;;30.02;5.07;;;;;;;4.70;100.00;101608.16;5352944;27;20024;-82
2023/01/10 06:19:40;;;;;;;31.98;6.10;;;;;;;4.72;100.00;101612.41;5359319;27;20116;-82
2023/01/10 06:22:11;;;;;;;23.50;5.03;;;;;;;4.69;100.00;101617.00;5354758;27;20044;-82
2023/01/10 06:24:43;;;;;;;26.63;4.43;;;;;;;4.63;100.00;101614.69;5359302;27;20038;-83
2023/01/10 06:27:14;;;;;;;26.00;4.75;;;;;;;4.63;100.00;101623.47;5356680;27;20075;-84
2023/01/10 06:29:45;;;;;;;27.40;5.18;;;;;;;4.64;100.00;101622.53;5345739;27;20027;-82
2023/01/10 06:32:17;;;;;;;27.08;4.57;;;;;;;4.64;100.00;101624.31;5327341;27;20469;-82
2023/01/10 06:34:48;;;;;;;28.02;4.93;;;;;;;4.60;100.00;101631.56;5344834;27;20028;-83
2023/01/10 06:37:19;;;;;;;19.10;4.75;;;;;;;4.59;100.00;101631.66;5346371;27;20585;-82
2023/01/10 06:39:51;;;;;;;24.30;4.43;;;;;;;4.54;100.00;101638.06;5345733;27;20095;-83
2023/01/10 06:42:22;;;;;;;35.00;7.05;;;;;;;4.48;100.00;101630.44;5347001;27;20012;-82
2023/01/10 06:44:53;;;;;;;24.85;4.60;;;;;;;4.43;100.00;101637.75;5341830;27;20023;-84
2023/01/10 06:47:25;;;;;;;27.95;4.85;;;;;;;4.33;100.00;101652.41;5344155;27;20024;-83
2023/01/10 06:49:56;;;;;;;28.45;4.80;;;;;;;4.23;100.00;101646.78;5347617;27;20137;-83
2023/01/10 06:52:27;;;;;;;24.00;4.28;;;;;;;4.17;100.00;101644.44;5353374;27;20082;-83
2023/01/10 06:54:59;;;;;;;20.60;4.57;;;;;;;4.14;100.00;101655.19;5356124;27;20062;-83
2023/01/10 06:57:32;;;;;;;24.40;5.85;;;;;;;4.08;100.00;101668.69;5330334;28;20160;-83
2023/01/10 07:00:06;;;;;;;22.42;4.50;;;;;;;4.00;100.00;101669.13;5325652;28;20027;-84
2023/01/10 07:02:37;;;;;;;23.73;4.25;;;;;;;3.94;100.00;101654.47;5323186;27;20491;-83
2023/01/10 07:05:08;;;;;;;31.20;5.00;;;;;;;3.95;100.00;101674.63;5332657;27;20015;-83
2023/01/10 07:07:40;;;;;;;29.65;6.00;;;;;;;3.92;100.00;101680.06;5345388;27;20030;-84
2023/01/10 07:10:11;;;;;;;38.38;5.63;;;;;;;3.89;100.00;101687.28;5336424;27;20036;-82
2023/01/10 07:12:43;;;;;;;27.05;5.25;;;;;;;3.88;100.00;101699.63;5341646;27;20035;-82
2023/01/10 07:15:14;;;;;;;25.83;5.25;;;;;;;3.93;100.00;101694.13;5342257;27;20030;-82
2023/01/10 07:17:45;;;;;;;29.58;5.65;;;;;;;4.00;100.00;101705.19;5337305;27;20111;-82
2023/01/10 07:20:17;;;;;;;32.42;6.90;;;;;;;4.06;100.00;101704.91;5345647;27;20050;-83
2023/01/10 07:22:56;;;;;;;26.25;4.13;;;;;;;4.06;100.00;101711.03;5346089;27;20119;-82
2023/01/10 07:25:28;;;;;;;29.73;5.00;;;;;;;4.04;100.00;101720.81;5332342;27;20007;-83
2023/01/10 07:28:00;;;;;;;29.08;5.03;;;;;;;4.05;100.00;101703.19;5362242;27;19992;-80
2023/01/10 07:30:31;;;;;;;24.15;4.88;;;;;;;4.09;100.00;101713.50;5374341;27;20020;-83
2023/01/10 07:33:02;;;;;;;26.95;4.88;;;;;;;4.11;100.00;101718.72;5374907;27;21909;-83
2023/01/10 07:35:34;;;;;;;26.70;4.90;;;;;;;4.15;100.00;101722.91;5364486;27;20047;-82
2023/01/10 07:38:05;;;;;;;24.48;5.55;;;;;;;4.14;100.00;101729.97;5351683;27;20028;-83
2023/01/10 07:40:36;;;;;;;31.02;5.18;;;;;;;4.13;100.00;101749.38;5348308;27;20028;-83
2023/01/10 07:43:08;;;;;;;23.58;4.95;;;;;;;4.14;100.00;101742.34;5349552;27;20068;-83
2023/01/10 07:45:40;;;;;;;21.15;4.40;;;;;;;4.09;100.00;101739.06;5330802;27;20093;-82
2023/01/10 07:48:11;;;;;;;27.58;4.90;;;;;;;4.07;100.00;101746.22;5330689;27;20027;-83
2023/01/10 07:50:42;;;;;;;24.85;4.00;;;;;;;4.07;100.00;101751.50;5330160;27;20491;-82
2023/01/10 07:53:14;;;;;;;24.48;5.72;;;;;;;4.04;100.00;101749.00;5330586;27;20019;-83
2023/01/10 07:55:45;;;;;;;28.60;6.07;;;;;;;4.03;100.00;101761.34;5313474;27;20103;-83
2023/01/10 07:58:17;;;;;;;27.80;5.93;;;;;;;4.03;100.00;101753.41;5348971;27;20023;-82
2023/01/10 08:00:49;;;;;;;24.48;4.53;;;;;;;4.01;100.00;101755.28;5347949;27;20063;-82
2023/01/10 08:03:23;;;;;;;28.95;4.53;;;;;;;3.98;100.00;101745.75;5348867;27;20016;-82
2023/01/10 08:05:59;;;;;;;26.48;5.00;;;;;;;3.98;100.00;101747.53;5347896;27;20030;-82
2023/01/10 08:08:32;;;;;;;21.60;4.82;;;;;;;3.91;100.00;101735.56;5347961;27;20421;-82
2023/01/10 08:11:04;;;;;;;21.95;4.78;;;;;;;3.91;100.00;101756.69;5347827;27;20040;-82
2023/01/10 08:13:35;;;;;;;24.08;5.32;;;;;;;3.88;100.00;101749.78;5347349;27;20020;-82
2023/01/10 08:16:07;;;;;;;18.08;4.10;;;;;;;3.93;100.00;101744.28;5347983;27;20141;-82
2023/01/10 08:18:41;;;;;;;36.50;5.50;;;;;;;3.96;100.00;101752.91;5348285;27;20007;-83
2023/01/10 08:21:12;;;;;;;21.65;4.80;;;;;;;4.03;100.00;101752.56;5348419;27;20035;-82
2023/01/10 08:23:44;;;;;;;21.02;4.68;;;;;;;4.03;100.00;101750.78;5334544;27;20021;-83
2023/01/10 08:26:15;;;;;;;23.50;4.85;;;;;;;4.06;100.00;101744.50;5327324;28;20054;-83
2023/01/10 08:28:46;;;;;;;25.88;4.85;;;;;;;4.19;100.00;101748.25;5326785;28;20091;-83
2023/01/10 08:31:18;;;;;;;24.15;5.07;;;;;;;4.20;100.00;101749.94;5344172;28;20008;-82
2023/01/10 08:33:49;;;;;;;23.95;4.88;;;;;;;4.23;100.00;101770.06;5348347;27;20004;-82
2023/01/10 08:36:21;;;;;;;26.70;5.03;;;;;;;4.29;100.00;101762.66;5351439;27;20024;-83
2023/01/10 08:38:54;;;;;;;21.42;5.38;;;;;;;4.34;100.00;101754.50;5348121;27;20107;-83
2023/01/10 08:41:25;;;;;;;30.10;5.07;;;;;;;4.42;100.00;101754.09;5348075;27;20016;-83
2023/01/10 08:43:57;;;;;;;23.60;4.07;;;;;;;4.46;100.00;101753.00;5334560;27;20465;-83
2023/01/10 08:46:28;;;;;;;31.35;5.68;;;;;;;4.44;100.00;101750.44;5328913;27;20029;-83
2023/01/10 08:48:59;;;;;;;21.17;4.00;;;;;;;4.46;100.00;101755.66;5347761;27;20464;-83
2023/01/10 08:51:30;;;;;;;19.15;3.95;;;;;;;4.48;100.00;101751.13;5348662;27;20046;-83
2023/01/10 08:54:02;;;;;;;27.13;4.95;;;;;;;4.50;100.00;101750.09;5337230;27;20520;-83
2023/01/10 08:56:36;;;;;;;19.48;4.20;;;;;;;4.58;100.00;101756.81;5326900;28;20047;-82
2023/01/10 08:59:07;;;;;;;21.88;4.55;;;;;;;4.61;100.00;101746.03;5326156;28;20051;-83
2023/01/10 09:01:38;;;;;;;23.00;4.53;;;;;;;4.70;100.00;101756.16;5326187;28;20095;-83
2023/01/10 09:04:10;;;;;;;24.77;4.75;;;;;;;4.70;100.00;101740.28;5341450;27;20098;-83
2023/01/10 09:06:41;;;;;;;21.30;4.07;;;;;;;4.75;100.00;101743.50;5347904;27;20030;-83
2023/01/10 09:09:13;;;;;;;19.60;4.35;;;;;;;4.82;100.00;101734.34;5347604;27;20100;-83
2023/01/10 09:11:44;;;;;;;26.17;4.38;;;;;;;4.86;100.00;101742.97;5347489;27;20012;-83
2023/01/10 09:14:15;;;;;;;22.15;4.55;;;;;;;4.90;100.00;101744.47;5334903;27;20400;-83
2023/01/10 09:16:50;;;;;;;22.92;4.28;;;;;;;4.95;100.00;101729.22;5325872;28;20031;-83
2023/01/10 09:19:21;;;;;;;25.90;4.38;;;;;;;4.93;100.00;101731.09;5326451;27;20095;-83
2023/01/10 09:21:53;;;;;;;18.08;4.53;;;;;;;4.90;100.00;101737.41;5344437;27;20146;-83
2023/01/10 09:24:24;;;;;;;20.00;3.63;;;;;;;4.90;100.00;101742.69;5364823;27;20487;-83
2023/01/10 09:26:55;;;;;;;22.23;4.22;;;;;;;4.89;100.00;101729.53;5369453;27;20066;-83
2023/01/10 09:29:26;;;;;;;21.48;3.88;;;;;;;4.92;100.00;101732.88;5368013;27;31761;-83
2023/01/10 09:31:58;;;;;;;27.73;4.82;;;;;;;4.93;100.00;101739.88;5366797;27;20520;-83
2023/01/10 09:34:29;;;;;;;23.35;3.92;;;;;;;4.93;100.00;101729.31;5350114;27;20084;-83
2023/01/10 09:37:00;;;;;;;23.70;4.43;;;;;;;5.02;100.00;101735.03;5347342;27;20051;-83
2023/01/10 09:39:32;;;;;;;23.17;4.13;;;;;;;5.07;100.00;101727.72;5347171;27;20396;-83
2023/01/10 09:42:29;;;;;;;25.02;4.80;;;;;;;5.19;100.00;101734.94;5345652;27;20046;-83
2023/01/10 09:45:20;;;;;;;27.25;4.95;;;;;;;5.28;100.00;101736.22;5355592;27;20492;-83
2023/01/10 09:48:08;;;;;;;24.73;3.90;;;;;;;5.32;100.00;101737.75;5365989;27;20058;-83
2023/01/10 09:50:45;;;;;;;23.95;4.70;;;;;;;5.39;100.00;101740.91;5368211;27;20491;-83
2023/01/10 09:53:22;;;;;;;19.30;3.65;;;;;;;5.46;100.00;101739.63;5368315;27;20455;-83
2023/01/10 09:55:56;;;;;;;28.08;4.90;;;;;;;5.47;100.00;101746.63;5371691;27;20018;-83
2023/01/10 09:58:33;;;;;;;15.80;3.75;;;;;;;5.59;100.00;101734.47;5379730;27;20038;-82
2023/01/10 10:01:15;;;;;;;23.58;5.13;;;;;;;5.62;100.00;101742.25;5382522;27;20011;-81
2023/01/10 10:04:22;;;;;;;18.08;3.88;;;;;;;5.69;100.00;101727.72;5368252;27;20014;-82
2023/01/10 10:06:54;;;;;;;19.15;4.43;;;;;;;5.75;100.00;101731.78;5385852;27;20053;-83
2023/01/10 10:09:29;;;;;;;22.27;8.45;;;;;;;5.75;100.00;101734.44;5371345;27;20087;-83
2023/01/10 10:12:22;;;;;;;36.38;20.17;;;;;;;5.93;100.00;101741.31;5366304;27;20092;-83
2023/01/10 10:15:17;;;;;;;18.80;5.25;;;;;;;5.97;100.00;101715.53;5368864;27;20023;-83
2023/01/10 10:18:06;;;;;;;19.02;4.93;;;;;;;5.92;100.00;101710.47;5370874;27;20114;-83
2023/01/10 10:20:56;;;;;;;20.55;4.40;;;;;;;5.90;100.00;101707.06;5367948;27;20055;-83
2023/01/10 10:24:14;;;;;;;22.05;4.20;;;;;;;5.95;100.00;101717.41;5371994;27;20023;-83
2023/01/10 10:26:58;;;;;;;20.15;4.30;;;;;;;5.99;100.00;101703.03;5365978;27;20051;-83
2023/01/10 10:29:57;;;;;;;17.92;4.60;;;;;;;5.98;100.00;101709.31;5370344;27;20031;-82
2023/01/10 10:32:44;;;;;;;18.23;4.28;;;;;;;6.04;100.00;101709.75;5365436;27;20031;-83
2023/01/10 10:35:21;;;;;;;16.17;3.92;;;;;;;6.05;100.00;101703.53;5366989;27;20023;-83
2023/01/10 10:37:57;;;;;;;20.55;4.93;;;;;;;6.03;100.00;101692.19;5367807;27;20035;-83
2023/01/10 10:40:35;;;;;;;17.83;3.53;;;;;;;5.99;100.00;101692.44;5365897;27;20114;-83
2023/01/10 10:43:19;;;;;;;17.23;3.88;;;;;;;6.10;100.00;101673.25;5348586;27;20488;-83
2023/01/10 10:45:55;;;;;;;24.33;4.40;;;;;;;6.15;100.00;101661.44;5345039;27;20089;-83
2023/01/10 10:48:42;;;;;;;20.42;4.22;;;;;;;6.17;100.00;101666.63;5345166;27;20020;-83
2023/01/10 10:51:25;;;;;;;22.02;4.72;;;;;;;6.23;100.00;101660.97;5346932;27;20102;-82
2023/01/10 10:53:57;;;;;;;23.52;4.18;;;;;;;6.19;100.00;101657.66;5373416;27;20039;-83
2023/01/10 10:56:29;;;;;;;19.20;4.47;;;;;;;6.32;100.00;101656.91;5389760;27;20025;-83
2023/01/10 10:59:00;;;;;;;20.08;4.07;;;;;;;6.43;100.00;101657.97;5390307;27;20038;-83
2023/01/10 11:01:31;;;;;;;20.38;3.60;;;;;;;6.54;100.00;101648.47;5374892;27;20022;-83
2023/01/10 11:04:11;;;;;;;20.30;4.45;;;;;;;6.50;100.00;101654.91;5363800;27;20110;-84
2023/01/10 11:06:47;;;;;;;21.15;3.97;;;;;;;6.46;100.00;101640.16;5364292;27;20051;-83
2023/01/10 11:09:36;;;;;;;19.52;4.63;;;;;;;6.51;100.00;101638.91;5370723;27;20953;-83
2023/01/10 11:12:17;;;;;;;16.05;3.95;;;;;;;6.55;100.00;101635.09;5370807;27;20023;-82
2023/01/10 11:14:50;;;;;;;24.17;4.63;;;;;;;6.61;100.00;101629.44;5367064;27;20027;-82
2023/01/10 11:17:24;;;;;;;18.23;4.03;;;;;;;6.52;100.00;101630.03;5370898;27;20076;-83
2023/01/10 11:20:02;;;;;;;20.13;3.72;;;;;;;6.54;100.00;101629.91;5366481;27;20063;-82
2023/01/10 11:22:54;;;;;;;15.23;3.58;;;;;;;6.60;100.00;101626.88;5330030;27;20024;-83
2023/01/10 11:25:25;;;;;;;17.65;4.47;;;;;;;6.53;100.00;101646.78;5347510;27;20377;-83
2023/01/10 11:28:00;;;;;;;20.35;3.70;;;;;;;6.55;100.00;101626.31;5348494;27;20027;-82
2023/01/10 11:30:33;;;;;;;24.33;4.65;;;;;;;6.57;100.00;101633.25;5348197;27;20106;-83
2023/01/10 11:33:06;;;;;;;21.63;4.75;;;;;;;6.60;100.00;101616.28;5348818;27;20027;-83
2023/01/10 11:35:40;;;;;;;18.95;3.92;;;;;;;6.66;100.00;101618.53;5348309;27;20103;-83
2023/01/10 11:38:14;;;;;;;18.55;4.63;;;;;;;6.63;100.00;101621.38;5348971;27;20031;-83
2023/01/10 11:41:04;;;;;;;26.10;5.20;;;;;;;6.68;100.00;101624.59;5348769;27;20111;-83
2023/01/10 11:43:38;;;;;;;19.98;3.90;;;;;;;6.60;100.00;101616.28;5348119;27;20088;-82
2023/01/10 11:46:16;;;;;;;20.92;4.57;;;;;;;6.67;100.00;101625.53;5344863;27;20030;-83
2023/01/10 11:49:00;;;;;;;19.73;4.75;;;;;;;6.68;100.00;101606.03;5349193;27;20455;-83
2023/01/10 11:51:38;;;;;;;22.00;4.60;;;;;;;6.72;100.00;101607.53;5329229;27;20020;-84
2023/01/10 11:54:15;;;;;;;19.73;5.15;;;;;;;6.84;100.00;101607.69;5348075;27;20023;-83
2023/01/10 11:56:53;;;;;;;;;;;;;;;6.96;100.00;101605.09;5348080;27;20024;-84